Time;durP1;ratioP1;P1;durP2;ratioP2;P2;SDS_P1;SDS_P2;PMS_P1;PMS_P2;Temp;Humidity;BMP_temperature;BMP_pressure;BME280_temperature;BME280_humidity;BME280_pressure;Samples;Min_cycle;Max_cycle;Signal;HPM_P1;HPM_P2
2022/02/13 00:01:56;;;;;;;2.93;2.73;;;;;;;16.50;43.31;97790.97;4894997;29;20297;-84
2022/02/13 00:04:23;;;;;;;3.23;2.73;;;;;;;10.74;43.26;96761.75;4863779;29;20210;-84
2022/02/13 00:06:53;;;;;;;3.57;3.00;;;;;;;18.19;43.18;98042.06;4906608;29;20236;-84
2022/02/13 00:09:19;;;;;;;3.20;2.90;;;;;;;14.63;43.33;97427.81;4879925;29;20615;-83
2022/02/13 00:11:46;;;;;;;3.50;3.10;;;;;;;16.63;43.30;97777.25;4893154;29;20278;-84
2022/02/13 00:14:13;;;;;;;2.80;2.60;;;;;;;14.36;43.67;97432.19;4879972;29;20222;-83
2022/02/13 00:16:40;;;;;;;2.63;2.43;;;;;;;13.47;43.57;97220.84;4863319;29;20711;-84
2022/02/13 00:19:07;;;;;;;3.17;2.87;;;;;;;16.55;43.32;97791.22;4894754;29;20206;-84
2022/02/13 00:21:50;;;;;;;3.10;2.80;;;;;;;14.72;43.70;97494.06;4868268;29;20194;-84
2022/02/13 00:24:17;;;;;;;3.00;2.70;;;;;;;17.58;43.68;97938.94;4879609;29;20293;-81
2022/02/13 00:26:43;;;;;;;3.20;2.90;;;;;;;17.30;43.70;97899.28;4895128;29;20222;-84
2022/02/13 00:29:12;;;;;;;4.40;3.67;;;;;;;15.97;43.47;97674.00;4881329;29;20297;-83
2022/02/13 00:31:39;;;;;;;2.97;2.67;;;;;;;17.37;43.25;97975.00;4881434;29;20222;-84
2022/02/13 00:34:06;;;;;;;3.73;3.03;;;;;;;18.27;43.58;98069.63;4882201;29;20574;-85
2022/02/13 00:36:34;;;;;;;3.07;2.77;;;;;;;17.33;43.49;97958.75;4897552;29;20777;-84
2022/02/13 00:39:01;;;;;;;3.13;2.83;;;;;;;18.35;43.51;98059.00;4897743;29;20925;-84
2022/02/13 00:41:28;;;;;;;3.13;2.83;;;;;;;13.89;43.63;97334.31;4882465;29;20584;-85
2022/02/13 00:43:55;;;;;;;3.03;2.73;;;;;;;13.94;43.40;97292.47;4897020;29;20753;-83
2022/02/13 00:46:23;;;;;;;3.10;2.80;;;;;;;12.25;43.40;97070.03;4898318;29;20589;-84
2022/02/13 00:48:49;;;;;;;3.17;2.87;;;;;;;17.41;43.49;97898.19;4898052;29;20198;-84
2022/02/13 00:51:18;;;;;;;3.20;2.90;;;;;;;12.64;43.74;97079.88;4896573;29;20274;-84
2022/02/13 00:53:48;;;;;;;2.97;2.73;;;;;;;13.23;43.23;97268.25;4868102;29;20249;-85
2022/02/13 00:56:15;;;;;;;3.30;3.00;;;;;;;14.41;43.57;97376.84;4898710;29;20230;-84
2022/02/13 00:58:42;;;;;;;2.97;2.70;;;;;;;15.62;43.91;97657.69;4899118;29;20619;-84
2022/02/13 01:01:12;;;;;;;2.80;2.60;;;;;;;16.95;43.62;97887.28;4866309;29;20230;-84
2022/02/13 01:03:39;;;;;;;3.20;2.90;;;;;;;15.77;43.66;97620.50;4864814;29;20207;-85
2022/02/13 01:06:06;;;;;;;3.20;2.90;;;;;;;14.14;43.94;97343.31;4891226;29;20222;-84
2022/02/13 01:08:39;;;;;;;3.13;2.77;;;;;;;14.19;43.56;97358.75;4899135;29;20652;-91
2022/02/13 01:35:37;;;;;;;3.20;3.00;;;;;;;17.28;43.88;97885.63;5988271;23;20168;-85
2022/02/13 01:38:04;;;;;;;3.00;2.80;;;;;;;18.23;43.64;98049.94;4877345;29;20262;-84
2022/02/13 01:40:32;;;;;;;3.53;3.23;;;;;;;18.50;43.67;98108.16;4863777;29;20211;-84
2022/02/13 01:42:58;;;;;;;3.30;3.00;;;;;;;17.99;43.83;98014.75;4878794;29;20278;-84
2022/02/13 01:45:25;;;;;;;3.20;2.90;;;;;;;18.58;43.70;98107.72;4862521;29;20653;-84
2022/02/13 01:47:52;;;;;;;3.60;3.20;;;;;;;18.66;43.35;98116.63;4878479;29;20316;-84
2022/02/13 01:50:18;;;;;;;3.83;3.43;;;;;;;18.53;43.79;98093.88;4892906;29;20206;-84
2022/02/13 01:52:47;;;;;;;3.60;3.30;;;;;;;18.42;43.72;98067.03;4878247;29;20226;-84
2022/02/13 01:55:14;;;;;;;3.50;3.20;;;;;;;18.67;43.32;98107.28;4877925;29;20241;-85
2022/02/13 01:57:40;;;;;;;3.00;2.70;;;;;;;18.69;43.07;98104.03;4878043;29;20270;-85
2022/02/13 02:00:08;;;;;;;3.57;3.23;;;;;;;18.64;43.41;98091.88;4887786;29;20206;-84
2022/02/13 02:02:34;;;;;;;3.20;2.90;;;;;;;18.24;43.32;98012.66;4874027;29;20278;-85
2022/02/13 02:05:01;;;;;;;3.07;2.87;;;;;;;18.27;43.21;98021.28;4876456;29;20286;-84
2022/02/13 02:07:28;;;;;;;3.40;3.10;;;;;;;18.57;43.44;98064.38;4877316;29;20301;-84
2022/02/13 02:09:54;;;;;;;3.60;3.20;;;;;;;18.52;43.29;98059.06;4877878;29;20233;-85
2022/02/13 02:12:21;;;;;;;3.60;3.30;;;;;;;18.27;43.36;98015.34;4877459;29;20310;-84
2022/02/13 02:14:47;;;;;;;4.03;3.17;;;;;;;18.20;43.41;98004.00;4877347;29;20660;-84
2022/02/13 02:17:14;;;;;;;3.57;3.27;;;;;;;18.05;43.32;97975.25;4893175;29;20313;-83
2022/02/13 02:19:41;;;;;;;3.40;3.10;;;;;;;18.58;43.88;98066.09;4877463;29;20301;-84
2022/02/13 02:22:08;;;;;;;3.60;3.30;;;;;;;18.58;43.70;98061.00;4893089;29;20504;-84
2022/02/13 02:24:35;;;;;;;3.30;3.00;;;;;;;18.15;43.46;97995.25;4862181;29;20257;-84
2022/02/13 02:27:02;;;;;;;4.00;3.60;;;;;;;18.50;43.45;98055.56;4877748;29;20325;-84
2022/02/13 02:29:29;;;;;;;3.93;3.33;;;;;;;18.44;43.02;98039.13;4861815;29;20607;-84
2022/02/13 02:31:56;;;;;;;3.97;3.57;;;;;;;18.54;43.53;98059.13;4861834;29;20232;-84
2022/02/13 02:34:22;;;;;;;3.63;3.20;;;;;;;18.58;43.23;98071.19;4861811;29;20206;-85
2022/02/13 02:36:49;;;;;;;3.63;3.30;;;;;;;18.29;43.40;98017.97;4877412;29;20234;-85
2022/02/13 02:39:15;;;;;;;3.40;3.10;;;;;;;18.48;43.52;98057.16;4877650;29;20237;-84
2022/02/13 02:41:42;;;;;;;3.40;3.10;;;;;;;18.53;43.22;98057.41;4877037;29;20242;-85
2022/02/13 02:44:08;;;;;;;3.80;3.43;;;;;;;18.21;43.32;98009.97;4877269;29;20289;-84
2022/02/13 02:46:35;;;;;;;4.03;3.37;;;;;;;18.36;43.31;98046.34;4876674;29;20502;-84
2022/02/13 02:49:02;;;;;;;3.27;2.93;;;;;;;18.51;43.61;98054.78;4876912;29;20206;-84
2022/02/13 02:51:28;;;;;;;3.97;3.57;;;;;;;18.53;43.56;98052.31;4876353;29;20282;-84
2022/02/13 02:53:55;;;;;;;3.50;3.20;;;;;;;18.23;43.51;98004.16;4877209;29;20297;-84
2022/02/13 02:56:22;;;;;;;3.43;3.13;;;;;;;18.61;43.00;98063.72;4877034;29;20741;-84
2022/02/13 02:58:49;;;;;;;3.97;3.60;;;;;;;18.26;43.20;98010.19;4877060;29;20202;-85
2022/02/13 03:01:16;;;;;;;4.13;3.73;;;;;;;18.03;43.09;97974.28;4861049;29;20206;-84
2022/02/13 03:03:43;;;;;;;4.37;3.40;;;;;;;17.59;43.60;97914.41;4873180;29;20749;-84
2022/02/13 03:06:10;;;;;;;4.33;3.53;;;;;;;18.23;43.33;98014.31;4858422;29;20242;-84
2022/02/13 03:38:23;;;;;;;3.80;3.50;;;;;;;18.37;43.41;98034.47;5346193;23;20249;-84
2022/02/13 03:40:53;;;;;;;4.43;3.90;;;;;;;18.31;43.56;98013.81;4859518;29;20585;-84
2022/02/13 03:43:20;;;;;;;4.40;4.00;;;;;;;18.47;43.42;98037.59;4876482;29;20293;-84
2022/02/13 03:45:46;;;;;;;3.90;3.47;;;;;;;18.42;43.19;98028.00;4861084;29;20270;-84
2022/02/13 03:48:13;;;;;;;3.50;3.20;;;;;;;18.54;43.47;98041.31;4875745;29;20265;-85
2022/02/13 03:50:40;;;;;;;3.47;3.17;;;;;;;18.37;43.42;98007.41;4860663;29;20281;-84
2022/02/13 03:53:08;;;;;;;3.90;3.50;;;;;;;18.55;42.93;98037.97;4875564;29;20229;-84
2022/02/13 03:55:35;;;;;;;3.30;3.00;;;;;;;18.32;43.27;97997.78;4891771;29;20278;-85
2022/02/13 04:19:38;;;;;;;4.13;3.73;;;;;;;18.17;42.95;97959.72;5053673;23;20246;-85
2022/02/13 04:22:04;;;;;;;3.53;3.23;;;;;;;18.17;42.95;97967.34;4872571;29;20203;-84
2022/02/13 04:24:31;;;;;;;4.43;3.73;;;;;;;18.39;43.08;98005.81;4842310;29;20206;-84
2022/02/13 04:26:58;;;;;;;4.10;3.70;;;;;;;18.40;42.95;98010.09;4872652;29;20301;-84
2022/02/13 04:29:24;;;;;;;4.20;3.80;;;;;;;18.52;42.89;98030.16;4842228;29;20266;-84
2022/02/13 04:31:51;;;;;;;4.60;3.83;;;;;;;17.70;43.01;97891.25;4842647;29;20227;-84
2022/02/13 04:34:23;;;;;;;4.00;3.60;;;;;;;18.39;43.09;98010.91;4873448;29;20624;-85
2022/02/13 04:36:49;;;;;;;3.93;3.60;;;;;;;18.44;43.13;98011.13;4875754;29;20281;-84
2022/02/13 04:39:16;;;;;;;4.03;3.63;;;;;;;18.29;42.75;97980.66;4890824;29;20245;-84
2022/02/13 04:41:42;;;;;;;3.50;3.20;;;;;;;18.67;42.83;98049.63;4875405;29;20708;-83
2022/02/13 04:44:09;;;;;;;3.80;3.50;;;;;;;18.21;42.69;97977.75;4867745;29;20230;-84
2022/02/13 04:46:36;;;;;;;3.83;3.50;;;;;;;18.62;42.45;98045.13;4875767;29;20329;-85
2022/02/13 04:49:03;;;;;;;3.90;3.60;;;;;;;18.01;42.96;97934.34;4875957;29;20253;-84
2022/02/13 04:51:29;;;;;;;4.30;3.90;;;;;;;18.48;42.57;98018.09;4875070;29;20206;-84
2022/02/13 04:53:56;;;;;;;3.90;3.60;;;;;;;18.52;42.85;98030.16;4865861;29;20286;-84
2022/02/13 04:56:23;;;;;;;3.50;3.20;;;;;;;18.03;42.88;97953.09;4841467;29;20269;-85
2022/02/13 04:58:49;;;;;;;3.63;3.33;;;;;;;18.29;43.29;97983.22;4857315;29;20250;-84
2022/02/13 05:01:16;;;;;;;3.67;3.33;;;;;;;18.11;43.06;97952.66;4872270;29;20307;-84
2022/02/13 05:03:42;;;;;;;3.93;3.40;;;;;;;18.50;43.19;98019.06;4885113;29;20226;-83
2022/02/13 05:06:09;;;;;;;3.47;3.17;;;;;;;18.57;42.98;98027.06;4856820;29;20793;-84
2022/02/13 05:08:35;;;;;;;3.67;3.37;;;;;;;18.55;43.02;98025.22;4857318;29;20806;-84
2022/02/13 05:11:02;;;;;;;3.53;3.23;;;;;;;18.15;43.20;97958.78;4841609;29;20207;-84
2022/02/13 05:13:29;;;;;;;3.60;3.30;;;;;;;18.13;43.29;97952.75;4886424;29;20574;-84
2022/02/13 05:15:55;;;;;;;3.87;3.47;;;;;;;18.45;42.72;98005.22;4894299;29;20908;-84
2022/02/13 05:18:22;;;;;;;3.93;3.53;;;;;;;18.23;43.18;97970.19;4863283;29;20732;-84
2022/02/13 05:20:49;;;;;;;4.37;3.90;;;;;;;17.60;43.04;97852.59;4878648;29;20249;-84
2022/02/13 05:23:15;;;;;;;3.90;3.57;;;;;;;18.10;43.25;97943.31;4866310;29;20235;-85
2022/02/13 05:25:42;;;;;;;3.40;3.10;;;;;;;18.34;42.77;97989.41;4860009;29;20294;-84
2022/02/13 05:28:08;;;;;;;3.50;3.20;;;;;;;18.25;42.88;97978.78;4875770;29;20780;-85
2022/02/13 05:30:36;;;;;;;3.57;3.27;;;;;;;18.08;42.98;97944.88;4841189;29;20205;-84
2022/02/13 05:33:02;;;;;;;4.17;3.77;;;;;;;18.36;42.88;97998.00;4884733;29;20583;-84
2022/02/13 05:35:29;;;;;;;3.50;3.20;;;;;;;18.21;43.18;97964.19;4893970;29;20246;-84
2022/02/13 05:37:56;;;;;;;3.63;3.33;;;;;;;18.45;43.06;98001.03;4878455;29;20321;-84
2022/02/13 05:40:22;;;;;;;3.63;3.27;;;;;;;18.31;43.21;97986.72;4878067;29;20194;-84
2022/02/13 05:42:49;;;;;;;3.50;3.20;;;;;;;18.28;43.11;97986.56;4881394;29;20235;-84
2022/02/13 05:45:15;;;;;;;3.73;3.43;;;;;;;18.36;43.38;98002.22;4844712;29;20281;-84
2022/02/13 05:47:46;;;;;;;3.90;3.53;;;;;;;18.43;42.94;98017.88;4859362;29;20223;-84
2022/02/13 05:50:13;;;;;;;3.57;3.27;;;;;;;18.11;43.42;97957.75;4860327;29;20256;-84
2022/02/13 05:52:39;;;;;;;3.50;3.20;;;;;;;18.32;43.44;97992.69;4885486;29;20744;-84
2022/02/13 05:55:06;;;;;;;3.30;3.00;;;;;;;17.91;43.23;97922.81;4862456;29;20301;-84
2022/02/13 05:57:33;;;;;;;3.60;3.30;;;;;;;17.84;43.49;97912.28;4878214;29;20261;-85
2022/02/13 06:00:00;;;;;;;3.40;3.10;;;;;;;18.57;43.16;98037.25;4874626;29;20648;-84
2022/02/13 06:02:26;;;;;;;3.43;3.13;;;;;;;18.33;43.13;98000.41;4876159;29;20282;-84
2022/02/13 06:04:53;;;;;;;3.50;3.20;;;;;;;18.57;43.48;98033.81;4874652;29;20207;-85
2022/02/13 06:07:20;;;;;;;3.93;3.57;;;;;;;18.01;43.32;97939.41;4890203;29;20314;-84
2022/02/13 06:09:47;;;;;;;3.40;3.10;;;;;;;18.50;43.21;98019.06;4861233;29;20660;-85
2022/02/13 06:12:14;;;;;;;3.80;3.50;;;;;;;18.21;43.48;97982.84;4864260;29;20326;-85
2022/02/13 06:14:40;;;;;;;3.80;3.40;;;;;;;17.94;43.57;97933.16;4870415;29;20242;-84
2022/02/13 06:17:07;;;;;;;3.27;2.97;;;;;;;17.61;43.28;97878.09;4875164;29;20671;-84
2022/02/13 06:19:33;;;;;;;3.23;2.93;;;;;;;18.47;43.56;98021.47;4874943;29;20425;-85
2022/02/13 06:22:00;;;;;;;3.40;3.10;;;;;;;18.41;43.34;98006.75;4875110;29;20249;-84
2022/02/13 06:24:27;;;;;;;3.83;3.53;;;;;;;18.18;43.09;97966.56;4862740;29;20322;-84
2022/02/13 06:26:53;;;;;;;3.50;3.20;;;;;;;18.16;43.55;97965.59;4840599;29;20239;-84
2022/02/13 06:29:20;;;;;;;3.97;3.57;;;;;;;18.33;43.49;97994.44;4865896;29;20265;-84
2022/02/13 08:03:49;;;;;;;3.83;3.43;;;;;;;18.78;42.80;97977.19;5050171;23;20641;-84
2022/02/13 08:06:17;;;;;;;3.53;3.23;;;;;;;18.69;42.60;97961.47;4884350;29;20203;-84
2022/02/13 08:08:43;;;;;;;3.63;3.33;;;;;;;18.80;42.87;97969.63;4857191;29;20681;-84
2022/02/13 08:11:10;;;;;;;3.43;3.13;;;;;;;18.72;42.79;97959.06;4865340;29;20233;-84
2022/02/13 08:13:36;;;;;;;3.70;3.40;;;;;;;18.75;42.65;97964.31;4866962;29;20570;-84
2022/02/13 08:16:03;;;;;;;3.80;3.50;;;;;;;18.62;42.50;97948.38;4876088;29;20206;-85
2022/02/13 08:18:30;;;;;;;3.47;3.17;;;;;;;18.45;43.01;97914.50;4880389;29;20265;-84
2022/02/13 08:20:57;;;;;;;3.47;3.17;;;;;;;18.77;42.58;97962.69;4871930;29;20242;-84
2022/02/13 08:23:24;;;;;;;3.63;3.33;;;;;;;18.57;42.89;97932.00;4868770;29;20238;-85
2022/02/13 08:25:51;;;;;;;3.93;3.20;;;;;;;18.92;42.68;97993.09;4861481;29;20210;-84
2022/02/13 08:28:18;;;;;;;2.97;2.77;;;;;;;18.76;42.94;97965.16;4876463;29;20499;-84
2022/02/13 08:30:45;;;;;;;3.70;3.40;;;;;;;18.77;42.68;97969.47;4858112;29;20325;-85
2022/02/13 08:33:11;;;;;;;3.40;3.10;;;;;;;18.62;42.71;97938.19;4851660;29;20344;-84
2022/02/13 08:35:38;;;;;;;3.40;3.10;;;;;;;18.60;43.04;97937.25;4890669;29;20648;-85
2022/02/13 08:38:05;;;;;;;4.03;3.60;;;;;;;18.58;42.85;97934.63;4902191;29;20221;-85
2022/02/13 08:40:32;;;;;;;3.67;3.37;;;;;;;18.73;42.74;97960.81;4890717;29;20656;-85
2022/02/13 08:42:59;;;;;;;5.50;3.40;;;;;;;18.51;43.13;97919.00;4868177;29;20205;-85
2022/02/13 08:45:26;;;;;;;3.73;3.40;;;;;;;18.48;42.69;97909.56;4875798;29;20207;-84
2022/02/13 08:47:52;;;;;;;3.20;2.90;;;;;;;18.50;42.64;97918.13;4883526;29;20766;-85
2022/02/13 08:50:19;;;;;;;3.20;2.90;;;;;;;18.62;43.01;97928.88;4863499;29;20677;-86
2022/02/13 08:52:48;;;;;;;3.30;3.00;;;;;;;18.66;42.97;97943.50;4877589;29;20241;-85
2022/02/13 08:55:15;;;;;;;3.43;3.10;;;;;;;18.63;42.92;97934.84;4889195;29;20206;-85
2022/02/13 08:57:42;;;;;;;3.40;3.10;;;;;;;18.52;42.88;97924.16;4852704;29;20249;-85
2022/02/13 09:00:11;;;;;;;5.80;3.53;;;;;;;18.52;42.48;97921.63;4879177;29;20295;-86
2022/02/13 09:02:38;;;;;;;4.67;2.87;;;;;;;18.38;42.68;97902.28;4862704;29;20286;-85
2022/02/13 09:05:06;;;;;;;4.77;3.03;;;;;;;18.53;42.70;97923.34;4865992;29;20749;-85
2022/02/13 09:07:42;;;;;;;3.53;3.20;;;;;;;18.66;42.67;97951.16;4892964;29;20269;-86
2022/02/13 09:10:11;;;;;;;5.07;3.13;;;;;;;18.25;42.25;97882.09;4859352;29;20226;-85
2022/02/13 09:12:38;;;;;;;4.77;3.53;;;;;;;18.61;41.00;97939.88;4853828;29;20291;-85
2022/02/13 09:15:05;;;;;;;4.33;3.93;;;;;;;18.37;40.41;97899.63;4863569;29;20247;-85
2022/02/13 09:17:32;;;;;;;6.40;4.47;;;;;;;18.48;39.53;97929.91;4894869;29;20230;-85
2022/02/13 09:19:59;;;;;;;6.90;4.57;;;;;;;18.60;39.53;97939.78;4909580;29;20238;-85
2022/02/13 09:22:25;;;;;;;9.07;4.17;;;;;;;18.33;39.13;97893.53;4890582;29;20301;-86
2022/02/13 09:24:52;;;;;;;6.20;4.70;;;;;;;18.62;39.28;97949.22;4877129;29;20234;-85
2022/02/13 09:27:21;;;;;;;6.53;3.73;;;;;;;18.39;38.95;97901.50;4901532;29;20227;-86
2022/02/13 09:29:48;;;;;;;5.40;4.60;;;;;;;18.13;38.26;97864.59;4867921;29;20237;-85
2022/02/13 09:32:15;;;;;;;7.03;4.50;;;;;;;18.31;38.38;97892.56;4886673;29;20293;-85
2022/02/13 09:34:41;;;;;;;7.47;4.33;;;;;;;18.06;38.31;97851.53;4891121;29;20222;-86
2022/02/13 09:37:08;;;;;;;6.90;4.50;;;;;;;18.28;38.31;97894.97;4859305;29;20318;-84
2022/02/13 09:39:34;;;;;;;6.30;4.00;;;;;;;18.26;37.84;97890.63;4877771;29;20234;-84
2022/02/13 09:42:01;;;;;;;4.90;4.33;;;;;;;18.30;38.63;97895.03;4865185;29;20214;-85
2022/02/13 09:44:28;;;;;;;7.77;4.47;;;;;;;18.37;38.96;97904.72;4864179;29;20880;-85
2022/02/13 09:46:54;;;;;;;8.20;4.30;;;;;;;18.33;39.04;97900.28;4872180;29;20241;-86
2022/02/13 09:49:24;;;;;;;7.43;4.03;;;;;;;18.00;39.30;97836.81;4884887;29;20202;-85
2022/02/13 09:51:50;;;;;;;10.20;4.30;;;;;;;18.17;39.24;97868.13;4879346;29;20237;-85
2022/02/13 09:54:17;;;;;;;11.60;4.23;;;;;;;18.14;39.61;97853.63;4880631;29;20326;-86
2022/02/13 09:56:47;;;;;;;7.20;4.10;;;;;;;18.30;40.29;97883.22;4877770;29;20285;-85
2022/02/13 09:59:14;;;;;;;7.27;4.00;;;;;;;17.97;40.48;97825.66;4882025;29;20237;-85
2022/02/13 10:01:42;;;;;;;14.20;4.47;;;;;;;18.22;40.58;97859.06;4880081;29;20229;-85
2022/02/13 10:04:10;;;;;;;19.10;4.63;;;;;;;18.19;40.47;97858.94;4865146;29;20214;-85
2022/02/13 10:06:36;;;;;;;7.87;4.70;;;;;;;18.12;40.77;97845.03;4893442;29;20251;-86
2022/02/13 10:09:04;;;;;;;12.83;5.10;;;;;;;18.33;41.12;97878.28;4877075;29;20555;-85
2022/02/13 10:11:35;;;;;;;18.23;4.43;;;;;;;18.33;40.76;97882.47;4872260;29;20298;-86
2022/02/13 10:14:06;;;;;;;7.43;3.73;;;;;;;17.84;41.16;97796.22;4857999;29;20344;-86
2022/02/13 10:16:36;;;;;;;8.97;4.47;;;;;;;18.18;41.17;97850.41;4853442;29;20321;-85
2022/02/13 10:19:07;;;;;;;13.27;4.10;;;;;;;18.42;41.39;97876.19;4855641;29;20225;-85
2022/02/13 11:08:14;;;;;;;5.90;3.37;;;;;;;18.61;42.10;97812.59;5355114;23;20214;-88
2022/02/13 11:12:44;;;;;;;5.67;3.57;;;;;;;18.10;41.86;97731.31;4924058;29;20179;-89
2022/02/13 11:16:21;;;;;;;5.07;3.33;;;;;;;16.01;42.35;97371.75;4905970;29;20238;-89
2022/02/13 11:20:24;;;;;;;4.70;3.30;;;;;;;18.67;42.08;97784.88;4906102;29;20174;-89
2022/02/13 11:23:35;;;;;;;3.60;3.20;;;;;;;17.10;41.66;97519.03;4881534;29;20243;-84
2022/02/13 11:26:03;;;;;;;4.87;3.63;;;;;;;18.54;41.05;97751.16;4863269;29;20293;-85
2022/02/13 11:28:42;;;;;;;6.97;3.70;;;;;;;18.70;38.57;97771.38;4848692;29;20207;-85
2022/02/13 11:31:28;;;;;;;4.67;3.60;;;;;;;18.26;37.76;97687.97;4890632;29;20217;-86
2022/02/13 11:33:56;;;;;;;4.80;3.60;;;;;;;18.46;37.89;97717.75;4880983;29;20226;-85
2022/02/13 11:36:49;;;;;;;4.07;3.60;;;;;;;18.69;38.94;97757.81;4865501;29;20309;-86
2022/02/13 11:39:34;;;;;;;3.80;3.40;;;;;;;18.69;39.14;97750.19;4871167;29;20256;-85
2022/02/13 11:42:11;;;;;;;4.70;3.53;;;;;;;18.53;39.13;97722.28;4878688;29;20295;-85
2022/02/13 11:44:39;;;;;;;5.60;3.73;;;;;;;18.69;39.33;97752.72;4867505;29;20245;-85
2022/02/13 11:47:07;;;;;;;4.63;3.20;;;;;;;18.67;39.72;97736.50;4865167;29;20264;-86
2022/02/13 11:50:11;;;;;;;7.13;3.70;;;;;;;18.69;39.91;97746.75;4860716;29;20290;-86
2022/02/13 11:52:51;;;;;;;5.03;3.60;;;;;;;18.40;40.34;97689.47;4893278;29;20258;-86
2022/02/13 11:55:18;;;;;;;7.90;3.73;;;;;;;18.52;40.54;97707.84;4884351;29;20287;-84
2022/02/13 11:57:54;;;;;;;3.47;3.13;;;;;;;18.70;40.61;97728.13;4875303;29;20423;-85
2022/02/13 12:00:31;;;;;;;6.50;3.73;;;;;;;18.31;41.09;97660.19;4882697;29;20710;-84
2022/02/13 12:02:58;;;;;;;6.60;3.30;;;;;;;18.23;40.89;97645.47;4836555;29;20231;-87
2022/02/13 12:05:24;;;;;;;5.77;3.43;;;;;;;18.50;40.69;97689.06;4871036;29;20203;-86
2022/02/13 12:07:51;;;;;;;7.53;3.53;;;;;;;18.70;40.79;97717.94;4860233;29;20309;-86
2022/02/13 12:10:21;;;;;;;5.03;3.13;;;;;;;18.71;41.00;97709.50;4874798;29;20246;-86
2022/02/13 12:12:48;;;;;;;3.50;3.20;;;;;;;18.27;40.89;97627.78;4879210;29;20198;-87
2022/02/13 12:15:17;;;;;;;7.03;3.17;;;;;;;18.10;41.28;97597.41;4856601;29;20593;-86
2022/02/13 12:17:44;;;;;;;4.50;3.30;;;;;;;18.59;41.25;97681.84;4863814;29;20257;-87
2022/02/13 12:20:12;;;;;;;4.07;3.03;;;;;;;18.35;41.38;97634.94;4863654;29;20209;-87
2022/02/13 12:22:40;;;;;;;5.10;3.00;;;;;;;18.07;41.56;97574.38;4876689;29;20719;-87
2022/02/13 12:25:09;;;;;;;5.00;3.17;;;;;;;18.38;41.62;97619.00;4851081;29;20286;-86
2022/02/13 12:27:36;;;;;;;4.90;3.20;;;;;;;18.51;41.35;97636.50;4864268;29;20260;-86
2022/02/13 12:30:08;;;;;;;5.47;3.20;;;;;;;18.34;41.29;97605.22;4874190;29;20939;-86
2022/02/13 12:32:36;;;;;;;4.33;3.10;;;;;;;18.61;40.61;97642.06;4867283;29;20226;-87
2022/02/13 12:35:11;;;;;;;6.03;3.40;;;;;;;18.61;40.54;97643.72;4882233;29;20309;-87
2022/02/13 12:37:42;;;;;;;3.83;3.10;;;;;;;18.67;40.63;97643.97;4866044;29;20228;-87
2022/02/13 12:40:11;;;;;;;4.10;3.13;;;;;;;18.67;41.05;97638.88;4881760;29;20425;-86
2022/02/13 12:42:42;;;;;;;3.13;2.73;;;;;;;18.15;40.97;97541.66;4876007;29;20278;-86
2022/02/13 12:45:11;;;;;;;3.80;3.03;;;;;;;18.50;41.05;97601.69;4865113;29;20255;-85
2022/02/13 12:47:40;;;;;;;3.73;2.90;;;;;;;18.19;41.37;97546.94;4866862;29;20218;-86
2022/02/13 12:50:09;;;;;;;4.83;3.03;;;;;;;18.10;41.20;97527.88;4849604;29;20255;-87
2022/02/13 12:52:35;;;;;;;4.50;3.00;;;;;;;18.30;41.65;97552.47;4860785;29;20212;-86
2022/02/13 12:55:08;;;;;;;5.97;3.17;;;;;;;17.90;41.50;97480.38;4855657;29;20316;-86
2022/02/13 12:57:36;;;;;;;3.77;2.90;;;;;;;18.41;41.59;97568.22;4863778;29;20259;-86
2022/02/13 13:00:06;;;;;;;3.33;2.80;;;;;;;18.39;41.80;97562.19;4863433;29;20290;-86
2022/02/13 13:02:37;;;;;;;5.17;3.40;;;;;;;18.65;41.75;97605.72;4868244;29;20724;-86
2022/02/13 13:05:29;;;;;;;4.80;2.77;;;;;;;18.24;41.77;97524.25;4887955;29;20265;-86
2022/02/13 13:08:51;;;;;;;3.50;3.07;;;;;;;18.12;42.08;97499.13;4863772;29;20258;-86
2022/02/13 13:11:31;;;;;;;5.30;3.03;;;;;;;18.26;42.02;97514.97;4857640;29;20309;-86
2022/02/13 13:14:05;;;;;;;3.73;2.90;;;;;;;18.42;41.89;97537.75;4863503;29;20225;-86
2022/02/13 13:16:32;;;;;;;6.17;3.10;;;;;;;18.54;41.90;97570.47;4912575;23;20214;-83
2022/02/13 13:18:59;;;;;;;3.27;2.70;;;;;;;18.26;41.77;97503.97;4848288;29;20707;-85
2022/02/13 13:21:34;;;;;;;3.10;2.77;;;;;;;18.61;42.11;97557.19;4863715;29;20203;-84
2022/02/13 13:24:25;;;;;;;3.37;2.80;;;;;;;18.05;41.81;97471.72;4861453;29;20206;-86
2022/02/13 13:26:57;;;;;;;5.40;2.90;;;;;;;18.59;41.89;97551.19;4854927;29;20286;-85
2022/02/13 13:58:59;;;;;;;3.03;2.70;;;;;;;12.15;42.25;96433.19;5421228;23;20214;-89
2022/02/13 14:01:42;;;;;;;4.40;2.70;;;;;;;14.46;42.33;96791.50;4946334;29;20189;-90
2022/02/13 14:04:10;;;;;;;3.83;2.60;;;;;;;15.13;42.30;96915.09;4930812;29;20485;-89
2022/02/13 14:09:15;;;;;;;4.20;2.70;;;;;;;14.08;41.99;96880.66;4937392;23;20257;-90
2022/02/13 15:22:08;;;;;;;3.40;2.70;;;;;;;18.02;42.62;97255.47;5537292;23;20253;-84
2022/02/13 15:24:35;;;;;;;3.33;2.20;;;;;;;17.89;42.43;97232.91;4873171;29;20222;-83
2022/02/13 15:27:02;;;;;;;4.00;2.47;;;;;;;18.13;42.62;97268.59;4869938;29;20318;-84
2022/02/13 15:29:28;;;;;;;2.60;2.10;;;;;;;18.24;42.67;97283.44;4876571;29;20218;-85
2022/02/13 15:31:55;;;;;;;4.53;2.70;;;;;;;18.01;42.74;97246.13;4865157;29;20978;-84
2022/02/13 15:34:21;;;;;;;4.80;2.47;;;;;;;17.67;42.37;97184.59;4858051;29;20279;-84
2022/02/13 15:36:48;;;;;;;3.00;2.47;;;;;;;18.73;42.01;97367.63;4857416;29;20790;-82
2022/02/13 15:39:15;;;;;;;2.73;2.53;;;;;;;18.24;42.23;97275.81;4857845;29;20287;-84
2022/02/13 15:41:41;;;;;;;2.80;2.50;;;;;;;17.93;42.11;97216.97;4858746;29;20242;-86
2022/02/13 15:44:08;;;;;;;2.93;2.57;;;;;;;18.23;42.13;97277.47;4875990;29;20302;-84
2022/02/13 15:46:39;;;;;;;3.03;2.27;;;;;;;18.59;41.92;97322.13;4877049;29;20230;-84
2022/02/13 15:49:06;;;;;;;5.47;2.77;;;;;;;17.94;42.11;97200.91;4860917;29;21054;-84
2022/02/13 15:51:32;;;;;;;2.57;2.20;;;;;;;18.83;42.48;97363.78;4876331;29;20286;-83
2022/02/13 15:53:59;;;;;;;2.77;2.50;;;;;;;18.21;42.28;97257.91;4875318;29;20262;-84
2022/02/13 15:56:25;;;;;;;5.17;2.47;;;;;;;18.18;41.83;97251.84;4875051;29;20648;-84
2022/02/13 15:58:52;;;;;;;2.70;2.50;;;;;;;17.97;41.92;97211.19;4872485;29;20238;-82
2022/02/13 16:01:19;;;;;;;2.73;2.33;;;;;;;18.37;41.87;97273.72;4872906;29;20290;-84
2022/02/13 16:03:45;;;;;;;3.13;2.43;;;;;;;17.90;41.87;97196.53;4872960;29;20285;-83
2022/02/13 16:06:12;;;;;;;4.00;2.53;;;;;;;18.33;42.06;97272.78;4873089;29;20633;-82
2022/02/13 16:08:38;;;;;;;3.43;2.50;;;;;;;18.43;42.45;97291.81;4866904;29;20334;-83
2022/02/13 16:11:05;;;;;;;2.77;2.53;;;;;;;18.18;42.29;97246.75;4870726;29;20314;-84
2022/02/13 16:13:31;;;;;;;4.10;2.37;;;;;;;18.69;42.32;97327.63;4856743;29;20223;-83
2022/02/13 16:15:58;;;;;;;2.53;2.33;;;;;;;18.75;42.40;97338.03;4870616;29;20212;-83
2022/02/13 16:18:25;;;;;;;3.63;2.40;;;;;;;18.74;42.38;97337.97;4855947;29;20239;-83
2022/02/13 16:20:52;;;;;;;3.20;2.43;;;;;;;18.31;42.55;97270.97;4854953;29;20761;-79
2022/02/13 16:26:04;;;;;;;2.73;2.37;;;;;;;16.83;42.53;97026.31;4870233;29;20242;-84
2022/02/13 16:28:31;;;;;;;3.97;2.57;;;;;;;17.30;42.55;97089.09;4870305;29;20230;-83
2022/02/13 16:30:57;;;;;;;3.03;2.50;;;;;;;18.51;42.52;97320.97;4874936;29;20314;-82
2022/02/13 16:33:24;;;;;;;2.97;2.37;;;;;;;17.96;42.26;97203.50;4856757;29;20290;-82
2022/02/13 16:35:50;;;;;;;4.83;2.40;;;;;;;18.01;42.22;97207.09;4876001;29;20288;-84
2022/02/13 16:38:17;;;;;;;2.93;2.33;;;;;;;18.27;42.63;97259.81;4876349;29;20626;-84
2022/02/13 16:40:44;;;;;;;4.00;2.30;;;;;;;18.13;42.53;97233.88;4876130;29;20199;-83
2022/02/13 16:43:10;;;;;;;3.87;2.20;;;;;;;17.91;42.63;97207.53;4874929;29;20234;-82
2022/02/13 16:45:37;;;;;;;3.43;2.40;;;;;;;18.18;42.77;97241.69;4874503;29;20285;-83
2022/02/13 16:48:04;;;;;;;2.73;2.30;;;;;;;17.97;42.87;97206.13;4876267;29;20257;-81
2022/02/13 16:50:30;;;;;;;4.47;2.60;;;;;;;18.37;42.62;97286.44;4889420;29;20278;-82
2022/02/13 16:52:57;;;;;;;5.37;2.40;;;;;;;18.27;43.09;97265.75;4876309;29;20219;-83
2022/02/13 16:55:24;;;;;;;2.73;2.17;;;;;;;17.98;43.24;97214.63;4876082;29;20251;-83
2022/02/13 17:24:43;;;;;;;5.20;2.87;;;;;;;12.58;43.86;96372.28;5628818;23;20262;-82
2022/02/13 17:27:10;;;;;;;7.47;2.80;;;;;;;12.86;43.80;96361.78;4861717;29;20317;-82
2022/02/13 17:29:37;;;;;;;6.97;3.27;;;;;;;17.47;43.78;97134.69;4879989;29;20210;-82
2022/02/13 17:32:04;;;;;;;4.03;2.93;;;;;;;17.13;43.99;97078.28;4864566;29;20239;-81